Portada
METAR-TAF:

METAR-TAF

Aeroports :

Orangeburg Municipal Airport

Orangeburg, Carolina del Sud, Estats Units d'Amèrica

latitud: 33-27-50N, longitud: 080-51-13W, altitud: 60 m

Observació

L'informe es va fer fa 30 minuts, a les 22:53 UTC
Vent 4 kt del Nord/Nord-Est
Temperatura 3°C
Humitat 52%
Pressió 1027 hPa
Visibilitat: 16.1 km
Cel clar

METAR: KOGB 132253Z AUTO 03004KT 10SM CLR 03/M06 A3034 RMK AO2 SLP276 T00331056

Hora: 18:23 (23:23 UTC)

Pronòstic

L'informe es va fer fa 1 hora i 44 minuts, a les 21:39 UTC
Pronòstic vàlid del 13 a les 22 UTC al 14 a les 18 UTC
Vent 8 kt del Est/Nord-Est
Visibilitat: 10 km
Cel clar
A partir de les 13 a les 2300 UTC
Vent 4 kt del Nord-Est
Visibilitat: 10 km
Cel clar
A partir de les 14 a les 0900 UTC
Vent 7 kt del Nord-Est
Visibilitat: 10 km
Cel ennuvolat a una alçada de 5000 ft

TAF: KOGB 132139Z 1322/1418 07008KT P6SM SKC FM132300 04004KT P6SM SKC FM140900 04007KT P6SM BKN050

Observacions i pronòstics meteorològics de més de 4000 aeroports (METAR i TAF).

Les estacions disponibles són els punts grocs i vermells al mapa.

Posi el ratolí al punt desitjat per veure el nom de l'estació.

Feu clic per veure les observacions i els pronòstics meteorològics.

Per canviar el mapa: feu clic els botons verds amb una creu de color negre per apropar; al botó verd amb un guió per allunyar la imatge; o en les fletxes verdes per a mapes adjacents.


METAR-TAF: